Time;durP1;ratioP1;P1;durP2;ratioP2;P2;SDS_P1;SDS_P2;PMS_P1;PMS_P2;Temp;Humidity;BMP_temperature;BMP_pressure;BME280_temperature;BME280_humidity;BME280_pressure;Samples;Min_cycle;Max_cycle;Signal;HPM_P1;HPM_P2
2023/12/02 00:00:47;;;;;;;23.70;9.00;;;;;;;-4.80;100.00;100712.25;5021617;28;20029;-77
2023/12/02 00:03:15;;;;;;;22.48;8.68;;;;;;;-4.74;100.00;100706.69;5036717;28;20264;-78
2023/12/02 00:05:41;;;;;;;21.73;9.55;;;;;;;-4.72;100.00;100704.00;5019412;28;20468;-76
2023/12/02 00:08:06;;;;;;;24.00;10.43;;;;;;;-4.71;100.00;100695.19;5019360;28;20044;-77
2023/12/02 00:10:32;;;;;;;24.35;10.63;;;;;;;-4.74;100.00;100688.31;5019441;28;20086;-77
2023/12/02 00:13:01;;;;;;;23.42;10.50;;;;;;;-4.76;100.00;100691.97;5019394;28;20045;-77
2023/12/02 00:15:26;;;;;;;25.23;10.50;;;;;;;-4.81;100.00;100683.50;5018778;28;20056;-78
2023/12/02 00:17:55;;;;;;;42.40;15.32;;;;;;;-4.83;100.00;100686.19;5020170;28;20166;-77
2023/12/02 00:20:21;;;;;;;27.60;10.90;;;;;;;-4.80;100.00;100685.19;5035141;28;20067;-78
2023/12/02 00:22:46;;;;;;;29.58;10.95;;;;;;;-4.87;100.00;100682.03;5019024;28;20028;-77
2023/12/02 00:25:12;;;;;;;28.48;12.75;;;;;;;-4.90;100.00;100674.31;5019129;28;20058;-77
2023/12/02 00:27:38;;;;;;;34.10;12.80;;;;;;;-4.92;100.00;100673.53;5018901;28;20064;-77
2023/12/02 00:30:04;;;;;;;28.20;12.13;;;;;;;-4.92;100.00;100677.03;5018919;28;20045;-77
2023/12/02 00:32:30;;;;;;;28.67;12.60;;;;;;;-4.95;100.00;100677.19;5053202;28;20163;-77
2023/12/02 00:34:56;;;;;;;19.05;8.77;;;;;;;-4.83;100.00;100680.94;5022889;28;20086;-77
2023/12/02 00:37:22;;;;;;;20.45;9.02;;;;;;;-4.85;100.00;100669.69;5022948;28;20040;-77
2023/12/02 00:39:48;;;;;;;14.07;6.80;;;;;;;-4.78;100.00;100664.97;5055796;28;20032;-78
2023/12/02 00:42:13;;;;;;;16.80;7.38;;;;;;;-4.80;100.00;100669.44;5022561;28;20036;-77
2023/12/02 00:44:39;;;;;;;15.55;7.70;;;;;;;-4.78;100.00;100671.06;5023058;28;20032;-78
2023/12/02 00:47:05;;;;;;;13.80;7.28;;;;;;;-4.85;100.00;100667.06;5039716;28;20398;-77
2023/12/02 00:49:30;;;;;;;13.13;7.13;;;;;;;-4.73;100.00;100661.19;5038784;28;20450;-77
2023/12/02 00:51:56;;;;;;;14.85;7.53;;;;;;;-4.86;100.00;100666.22;5022723;28;20540;-78
2023/12/02 00:54:22;;;;;;;15.40;7.45;;;;;;;-4.91;100.00;100641.16;5022647;28;20036;-77
2023/12/02 00:56:48;;;;;;;12.23;6.15;;;;;;;-4.87;100.00;100653.19;5022649;28;20434;-77
2023/12/02 00:59:13;;;;;;;16.67;7.28;;;;;;;-4.73;100.00;100655.09;5022610;28;20037;-77
2023/12/02 01:01:39;;;;;;;11.93;6.28;;;;;;;-4.77;100.00;100661.41;5022612;28;20095;-78
2023/12/02 01:04:05;;;;;;;10.48;6.00;;;;;;;-4.87;100.00;100658.41;5023170;28;20059;-78
2023/12/02 01:06:30;;;;;;;13.00;5.30;;;;;;;-5.02;100.00;100659.25;5022158;28;20534;-77
2023/12/02 01:08:56;;;;;;;12.75;7.03;;;;;;;-5.15;100.00;100659.00;5038483;28;20033;-78
2023/12/02 01:11:21;;;;;;;11.25;5.43;;;;;;;-5.16;100.00;100659.91;5054979;28;20032;-78
2023/12/02 01:13:47;;;;;;;7.88;4.57;;;;;;;-5.02;100.00;100662.69;5022295;28;20048;-78
2023/12/02 01:16:13;;;;;;;6.28;4.50;;;;;;;-4.97;100.00;100663.31;5038318;28;20441;-78
2023/12/02 01:18:38;;;;;;;8.70;5.15;;;;;;;-5.00;100.00;100660.84;5023021;28;20040;-77
2023/12/02 01:21:04;;;;;;;10.35;5.60;;;;;;;-5.09;100.00;100664.78;5022202;28;20494;-77
2023/12/02 01:23:30;;;;;;;5.53;3.78;;;;;;;-5.23;100.00;100667.25;5022041;28;20029;-77
2023/12/02 01:25:56;;;;;;;9.07;5.15;;;;;;;-5.39;100.00;100655.84;5021914;28;20395;-78
2023/12/02 01:28:22;;;;;;;8.57;4.95;;;;;;;-5.48;100.00;100657.13;5021717;28;20043;-77
2023/12/02 01:30:47;;;;;;;10.57;5.68;;;;;;;-5.56;100.00;100646.19;5021908;28;20045;-77
2023/12/02 01:33:13;;;;;;;9.45;5.93;;;;;;;-5.46;100.00;100664.94;5021995;28;20136;-77
2023/12/02 01:35:39;;;;;;;10.25;6.03;;;;;;;-5.36;100.00;100661.78;5038510;28;20037;-78
2023/12/02 01:38:05;;;;;;;14.93;7.00;;;;;;;-5.27;100.00;100663.06;5021879;28;20036;-77
2023/12/02 01:40:30;;;;;;;15.30;8.70;;;;;;;-5.25;100.00;100663.03;5022483;28;20044;-78
2023/12/02 01:42:56;;;;;;;11.93;6.38;;;;;;;-5.33;100.00;100664.25;5021777;28;20471;-78
2023/12/02 01:45:22;;;;;;;15.02;7.75;;;;;;;-5.33;100.00;100666.03;5020816;28;20025;-78
2023/12/02 01:47:48;;;;;;;14.48;7.80;;;;;;;-5.35;100.00;100667.84;5054265;28;20029;-78
2023/12/02 01:50:14;;;;;;;17.90;8.23;;;;;;;-5.30;100.00;100666.69;5021554;28;20041;-78
2023/12/02 01:52:40;;;;;;;23.75;9.23;;;;;;;-5.28;100.00;100673.66;5021557;28;20476;-78
2023/12/02 01:55:05;;;;;;;15.93;6.85;;;;;;;-5.25;100.00;100673.50;5021589;28;20037;-78
2023/12/02 01:57:32;;;;;;;12.77;6.10;;;;;;;-5.35;100.00;100668.69;5037949;28;20128;-78
2023/12/02 01:59:58;;;;;;;9.65;6.05;;;;;;;-5.40;100.00;100665.50;5037406;28;20056;-78
2023/12/02 02:02:25;;;;;;;21.77;9.75;;;;;;;-5.42;100.00;100656.84;5037714;28;20117;-79
2023/12/02 02:04:51;;;;;;;14.40;8.60;;;;;;;-5.21;100.00;100662.78;5021438;28;20033;-79
2023/12/02 02:07:17;;;;;;;17.48;7.88;;;;;;;-5.11;100.00;100655.28;5021262;28;20040;-79
2023/12/02 02:09:49;;;;;;;19.92;8.52;;;;;;;-5.13;100.00;100649.31;5021302;28;20468;-79
2023/12/02 02:12:15;;;;;;;13.77;7.25;;;;;;;-5.11;100.00;100652.66;5054106;28;20029;-79
2023/12/02 02:14:41;;;;;;;10.90;5.40;;;;;;;-5.18;100.00;100661.78;5021182;28;20487;-79
2023/12/02 02:17:07;;;;;;;6.65;4.93;;;;;;;-5.31;100.00;100665.03;5037101;28;20040;-79
2023/12/02 02:19:33;;;;;;;12.63;6.20;;;;;;;-5.32;100.00;100663.34;5021130;28;20029;-79
2023/12/02 02:21:58;;;;;;;7.47;4.72;;;;;;;-5.32;100.00;100667.69;5037758;28;20047;-79
2023/12/02 02:24:24;;;;;;;5.65;3.72;;;;;;;-5.27;100.00;100667.47;5020859;28;20372;-79
2023/12/02 02:26:50;;;;;;;9.77;5.07;;;;;;;-5.29;100.00;100664.94;5021014;28;20487;-79
2023/12/02 02:29:16;;;;;;;10.20;4.72;;;;;;;-5.45;100.00;100659.63;5021272;28;20045;-79
2023/12/02 02:31:41;;;;;;;14.63;7.20;;;;;;;-5.51;100.00;100659.91;5053450;28;20120;-79
2023/12/02 02:34:07;;;;;;;7.90;4.25;;;;;;;-5.42;100.00;100661.25;5036773;28;20029;-79
2023/12/02 02:36:33;;;;;;;13.05;6.55;;;;;;;-5.46;100.00;100651.84;5037250;28;20040;-79
2023/12/02 02:38:59;;;;;;;8.95;5.00;;;;;;;-5.44;100.00;100653.47;5020623;28;20067;-79
2023/12/02 02:41:24;;;;;;;6.20;4.55;;;;;;;-5.46;100.00;100657.91;5021183;28;20033;-79
2023/12/02 02:43:54;;;;;;;11.93;5.57;;;;;;;-5.48;100.00;100656.28;5037453;28;20045;-79
2023/12/02 02:46:19;;;;;;;14.00;5.65;;;;;;;-5.46;100.00;100659.69;5020413;28;20032;-79
2023/12/02 02:48:45;;;;;;;10.73;6.15;;;;;;;-5.45;100.00;100664.00;5020560;28;20033;-79
2023/12/02 02:51:11;;;;;;;16.35;6.35;;;;;;;-5.39;100.00;100648.00;5036498;28;20029;-79
2023/12/02 02:53:36;;;;;;;18.20;6.28;;;;;;;-5.32;100.00;100657.22;5020469;28;20124;-79
2023/12/02 02:56:02;;;;;;;12.73;4.82;;;;;;;-5.41;100.00;100658.53;5020357;28;20162;-79
2023/12/02 02:58:28;;;;;;;13.75;6.57;;;;;;;-5.55;100.00;100667.09;5020059;28;20033;-79
2023/12/02 03:00:54;;;;;;;12.23;5.22;;;;;;;-5.51;100.00;100659.91;5036293;28;20029;-79
2023/12/02 03:03:20;;;;;;;15.10;6.80;;;;;;;-5.44;100.00;100663.94;5020331;28;20040;-79
2023/12/02 03:05:45;;;;;;;10.02;5.78;;;;;;;-5.31;100.00;100659.78;5036675;28;20100;-79
2023/12/02 03:08:11;;;;;;;11.20;5.38;;;;;;;-5.33;100.00;100656.38;5020239;28;20034;-79
2023/12/02 03:10:37;;;;;;;12.95;5.45;;;;;;;-5.48;100.00;100653.66;5020193;28;20395;-79
2023/12/02 03:13:02;;;;;;;10.48;5.15;;;;;;;-5.68;100.00;100659.91;5020046;28;20182;-79
2023/12/02 03:15:28;;;;;;;12.10;4.90;;;;;;;-5.74;100.00;100655.81;5020906;28;20099;-78
2023/12/02 03:17:54;;;;;;;10.00;5.10;;;;;;;-5.79;100.00;100650.81;5020032;28;20412;-78
2023/12/02 03:20:19;;;;;;;7.35;4.57;;;;;;;-5.87;100.00;100645.09;5052572;28;20083;-78
2023/12/02 03:22:45;;;;;;;11.80;6.28;;;;;;;-5.89;100.00;100646.94;5019721;28;20055;-77
2023/12/02 03:25:12;;;;;;;6.22;3.33;;;;;;;-5.70;100.00;100646.88;5019938;28;20043;-78
2023/12/02 03:27:38;;;;;;;7.53;4.35;;;;;;;-5.53;100.00;100648.66;5019813;28;20044;-78
2023/12/02 03:30:04;;;;;;;7.45;4.55;;;;;;;-5.60;100.00;100647.28;5019856;28;20037;-78
2023/12/02 03:32:31;;;;;;;8.13;4.78;;;;;;;-5.73;100.00;100646.19;5035845;28;20041;-78
2023/12/02 03:34:57;;;;;;;7.82;4.40;;;;;;;-5.82;100.00;100653.56;5035967;28;20066;-77
2023/12/02 03:37:22;;;;;;;6.53;4.35;;;;;;;-5.92;100.00;100654.09;5019762;28;20127;-78
2023/12/02 03:39:48;;;;;;;10.90;5.15;;;;;;;-5.96;100.00;100650.78;5019802;28;20043;-78
2023/12/02 03:42:14;;;;;;;12.68;5.95;;;;;;;-5.94;100.00;100648.94;5019699;28;20036;-78
2023/12/02 03:44:39;;;;;;;13.23;6.28;;;;;;;-5.87;100.00;100652.94;5036101;28;20033;-78
2023/12/02 03:47:07;;;;;;;20.20;8.18;;;;;;;-5.73;100.00;100651.44;5052238;28;20487;-78
2023/12/02 03:49:33;;;;;;;17.17;7.53;;;;;;;-5.73;100.00;100652.25;5020406;28;20424;-78
2023/12/02 03:52:09;;;;;;;11.13;5.57;;;;;;;-5.90;100.00;100632.16;5020190;28;20068;-78
2023/12/02 03:54:43;;;;;;;11.50;6.13;;;;;;;-5.94;100.00;100643.72;5021757;28;20087;-78
2023/12/02 03:57:09;;;;;;;11.60;6.80;;;;;;;-5.95;100.00;100635.91;5035806;28;20028;-79
2023/12/02 03:59:35;;;;;;;8.25;5.57;;;;;;;-5.85;100.00;100630.13;5019547;28;20375;-78
2023/12/02 04:02:01;;;;;;;9.65;5.10;;;;;;;-5.76;100.00;100634.94;5019458;28;20044;-78
2023/12/02 04:04:26;;;;;;;8.32;5.07;;;;;;;-5.82;100.00;100629.13;5019338;28;20029;-79
2023/12/02 04:06:53;;;;;;;9.63;4.70;;;;;;;-5.87;100.00;100624.13;5019948;28;20041;-78
2023/12/02 04:09:18;;;;;;;9.43;4.82;;;;;;;-5.94;100.00;100628.00;5023301;28;20072;-78
2023/12/02 04:11:46;;;;;;;7.88;4.43;;;;;;;-5.98;100.00;100626.44;5023466;28;20459;-79
2023/12/02 04:14:12;;;;;;;6.50;3.97;;;;;;;-6.05;100.00;100625.06;5056372;28;20021;-78
2023/12/02 04:16:43;;;;;;;6.10;4.03;;;;;;;-6.22;100.00;100616.25;5023387;28;20032;-78
2023/12/02 04:19:09;;;;;;;10.50;5.43;;;;;;;-6.25;100.00;100616.34;5023382;28;20032;-78
2023/12/02 04:21:42;;;;;;;5.85;3.88;;;;;;;-6.20;100.00;100617.00;5023346;28;20051;-78
2023/12/02 04:24:09;;;;;;;9.20;4.32;;;;;;;-6.20;100.00;100613.53;5023181;28;20087;-78
2023/12/02 04:26:36;;;;;;;7.88;4.28;;;;;;;-6.20;100.00;100621.38;5039532;28;20041;-78
2023/12/02 04:29:01;;;;;;;11.07;4.85;;;;;;;-6.19;100.00;100623.09;5040197;28;20083;-78
2023/12/02 04:31:27;;;;;;;5.82;3.88;;;;;;;-6.18;100.00;100626.56;5039581;28;20495;-78
2023/12/02 04:33:53;;;;;;;10.27;4.00;;;;;;;-6.22;100.00;100626.72;5056244;28;20048;-79
2023/12/02 04:36:19;;;;;;;5.45;3.30;;;;;;;-6.27;100.00;100619.97;5039213;28;20106;-78
2023/12/02 04:38:45;;;;;;;8.07;4.28;;;;;;;-6.38;100.00;100617.84;5039017;28;20025;-78
2023/12/02 04:41:11;;;;;;;6.60;3.90;;;;;;;-6.41;100.00;100621.47;5022893;28;20033;-79
2023/12/02 04:43:37;;;;;;;7.47;4.75;;;;;;;-6.48;100.00;100612.22;5022898;28;20412;-78
2023/12/02 04:46:02;;;;;;;5.43;4.18;;;;;;;-6.48;100.00;100612.22;5022505;28;20040;-78
2023/12/02 04:48:28;;;;;;;14.32;6.95;;;;;;;-6.30;100.00;100615.72;5038869;28;20029;-78
2023/12/02 04:50:54;;;;;;;14.27;6.00;;;;;;;-6.16;100.00;100614.25;5039292;28;20102;-78
2023/12/02 04:53:20;;;;;;;8.93;3.47;;;;;;;-6.08;100.00;100620.81;5055388;28;20379;-78
2023/12/02 04:55:46;;;;;;;10.05;4.28;;;;;;;-6.13;100.00;100622.81;5039126;28;20048;-79
2023/12/02 04:58:11;;;;;;;8.00;4.28;;;;;;;-6.20;100.00;100622.22;5038731;28;20033;-78
2023/12/02 05:00:37;;;;;;;8.82;4.53;;;;;;;-6.26;100.00;100617.28;5039619;28;20391;-78
2023/12/02 05:03:03;;;;;;;7.25;3.65;;;;;;;-6.36;100.00;100607.34;5039042;28;20044;-78
2023/12/02 05:05:29;;;;;;;4.78;3.60;;;;;;;-6.29;100.00;100617.44;5022278;28;20029;-78
2023/12/02 05:07:54;;;;;;;9.07;4.32;;;;;;;-6.43;100.00;100620.72;5022531;28;20028;-78
2023/12/02 05:10:20;;;;;;;9.45;4.18;;;;;;;-6.26;100.00;100621.69;5022381;28;20511;-78
2023/12/02 05:12:46;;;;;;;6.35;3.38;;;;;;;-6.23;100.00;100622.38;5022329;28;20033;-78
2023/12/02 05:15:12;;;;;;;6.13;3.83;;;;;;;-6.30;100.00;100620.97;5022019;28;20037;-78
2023/12/02 05:17:37;;;;;;;6.10;3.83;;;;;;;-6.27;100.00;100622.59;5022809;28;20376;-78
2023/12/02 05:20:03;;;;;;;7.45;4.65;;;;;;;-6.32;100.00;100611.50;5020852;28;20029;-78
2023/12/02 05:22:29;;;;;;;10.05;4.93;;;;;;;-6.23;100.00;100616.31;5038346;28;20032;-78
2023/12/02 05:24:55;;;;;;;12.15;6.45;;;;;;;-6.17;100.00;100616.00;5022052;28;20055;-78
2023/12/02 05:27:20;;;;;;;9.02;4.85;;;;;;;-6.15;100.00;100613.31;5021529;28;20040;-78
2023/12/02 05:29:46;;;;;;;15.73;6.65;;;;;;;-6.04;100.00;100621.50;5021786;28;20041;-79
2023/12/02 05:32:12;;;;;;;9.55;4.57;;;;;;;-5.98;100.00;100621.19;5038482;28;20045;-78
2023/12/02 05:34:37;;;;;;;16.58;6.05;;;;;;;-6.05;100.00;100614.59;5021970;28;20044;-78
2023/12/02 05:37:04;;;;;;;6.68;3.65;;;;;;;-6.08;100.00;100619.97;5021960;28;20503;-78
2023/12/02 05:39:29;;;;;;;10.70;5.10;;;;;;;-6.14;100.00;100620.25;5021975;28;20067;-78
2023/12/02 05:41:55;;;;;;;11.48;5.35;;;;;;;-6.23;100.00;100608.44;5038141;28;20029;-78
2023/12/02 05:44:21;;;;;;;13.15;5.68;;;;;;;-6.26;100.00;100612.06;5021834;28;20068;-79
2023/12/02 05:46:46;;;;;;;8.80;4.35;;;;;;;-6.22;100.00;100608.38;5021405;28;20025;-79
2023/12/02 05:49:13;;;;;;;18.00;6.35;;;;;;;-6.13;100.00;100611.50;5054699;28;20127;-78
2023/12/02 05:51:38;;;;;;;8.10;4.90;;;;;;;-6.15;100.00;100605.47;5021717;28;20028;-78
2023/12/02 05:54:07;;;;;;;7.22;4.40;;;;;;;-6.30;100.00;100599.19;5038118;28;20048;-79
2023/12/02 05:56:33;;;;;;;15.13;6.70;;;;;;;-6.28;100.00;100602.59;5054589;28;20091;-78
2023/12/02 05:58:58;;;;;;;5.78;3.92;;;;;;;-6.17;100.00;100609.94;5021443;28;20037;-78
2023/12/02 06:01:24;;;;;;;12.10;4.78;;;;;;;-6.16;100.00;100609.03;5022286;28;20086;-78
2023/12/02 06:03:50;;;;;;;6.95;4.68;;;;;;;-6.12;100.00;100600.94;5021458;28;20495;-78
2023/12/02 06:06:16;;;;;;;10.23;4.82;;;;;;;-6.00;100.00;100608.19;5037684;28;20024;-78
2023/12/02 06:08:42;;;;;;;6.15;4.10;;;;;;;-5.87;100.00;100607.59;5037262;28;20523;-78
2023/12/02 06:11:07;;;;;;;8.10;4.40;;;;;;;-5.81;100.00;100595.03;5021208;28;20025;-78
2023/12/02 06:13:33;;;;;;;6.68;4.05;;;;;;;-5.72;100.00;100600.72;5021264;28;20036;-78
2023/12/02 06:15:59;;;;;;;7.80;3.60;;;;;;;-5.72;100.00;100612.03;5020817;28;20464;-78
2023/12/02 06:18:40;;;;;;;8.90;4.97;;;;;;;-5.53;100.00;100609.34;5020855;28;20048;-78
2023/12/02 06:21:37;;;;;;;6.65;4.07;;;;;;;-5.51;100.00;100589.19;5021797;28;20048;-78
2023/12/02 06:24:47;;;;;;;7.38;4.53;;;;;;;-5.44;100.00;100589.72;5039259;28;20025;-78
2023/12/02 06:27:13;;;;;;;8.30;4.78;;;;;;;-5.30;100.00;100608.19;5036919;28;20045;-78
2023/12/02 06:29:38;;;;;;;13.32;5.93;;;;;;;-5.20;100.00;100611.22;5020610;28;20044;-79
2023/12/02 06:32:04;;;;;;;6.97;4.00;;;;;;;-5.18;100.00;100604.97;5020869;28;20484;-78
2023/12/02 06:34:30;;;;;;;9.23;4.57;;;;;;;-5.08;100.00;100605.31;5036702;28;20040;-79
2023/12/02 06:36:56;;;;;;;11.75;5.55;;;;;;;-5.01;100.00;100609.31;5020789;28;20118;-79
2023/12/02 06:39:21;;;;;;;10.18;5.25;;;;;;;-4.88;100.00;100610.38;5020763;28;20067;-79
2023/12/02 06:41:47;;;;;;;10.95;5.10;;;;;;;-4.88;100.00;100605.13;5053315;28;20028;-78
2023/12/02 06:44:13;;;;;;;12.50;5.30;;;;;;;-4.89;100.00;100605.22;5037021;28;20032;-79
2023/12/02 06:46:38;;;;;;;11.30;5.85;;;;;;;-4.83;100.00;100598.81;5036588;28;20074;-78
2023/12/02 06:49:04;;;;;;;8.77;5.22;;;;;;;-4.72;100.00;100601.69;5020550;28;20099;-78
2023/12/02 06:51:30;;;;;;;11.27;6.22;;;;;;;-4.76;100.00;100589.66;5020264;28;20044;-78
2023/12/02 06:53:56;;;;;;;16.05;7.47;;;;;;;-4.76;100.00;100592.28;5036779;28;20033;-78
2023/12/02 06:56:23;;;;;;;11.32;4.88;;;;;;;-4.70;100.00;100597.22;5020481;28;20383;-78
2023/12/02 06:58:49;;;;;;;17.77;8.60;;;;;;;-4.66;100.00;100598.72;5020432;28;20048;-79
2023/12/02 07:01:29;;;;;;;9.45;4.95;;;;;;;-4.58;100.00;100596.53;5020037;28;20032;-79
2023/12/02 07:03:56;;;;;;;12.65;6.55;;;;;;;-4.58;100.00;100590.44;5053315;28;20036;-79
2023/12/02 07:06:22;;;;;;;10.32;6.10;;;;;;;-4.52;100.00;100588.34;5036427;28;20032;-79
2023/12/02 07:08:51;;;;;;;10.90;5.05;;;;;;;-4.51;100.00;100597.06;5020213;28;20033;-79
2023/12/02 07:11:23;;;;;;;10.43;5.72;;;;;;;-4.49;100.00;100584.72;5020714;28;20059;-78
2023/12/02 07:13:51;;;;;;;11.10;5.05;;;;;;;-4.42;100.00;100589.53;5052672;28;20108;-78
2023/12/02 07:16:18;;;;;;;14.82;8.90;;;;;;;-4.36;100.00;100587.53;5020073;28;20040;-79
2023/12/02 07:18:44;;;;;;;11.15;5.88;;;;;;;-4.28;100.00;100587.94;5052899;28;20059;-79
2023/12/02 07:21:15;;;;;;;11.32;5.95;;;;;;;-4.27;100.00;100594.88;5036076;28;20037;-78
2023/12/02 07:23:47;;;;;;;8.48;5.38;;;;;;;-4.22;100.00;100584.97;5036393;28;20037;-78
2023/12/02 07:26:14;;;;;;;12.25;5.60;;;;;;;-4.36;100.00;100574.41;5004671;28;20056;-78
2023/12/02 07:28:40;;;;;;;9.98;5.50;;;;;;;-4.29;100.00;100587.06;5052462;28;20040;-78
2023/12/02 07:31:12;;;;;;;7.35;4.75;;;;;;;-4.27;100.00;100595.72;5019615;28;20091;-78
2023/12/02 07:33:38;;;;;;;9.40;5.68;;;;;;;-4.26;100.00;100593.94;5052648;28;20495;-78
2023/12/02 07:36:07;;;;;;;8.98;5.80;;;;;;;-4.35;100.00;100589.19;5052704;28;20103;-78
2023/12/02 07:38:33;;;;;;;7.63;4.82;;;;;;;-4.36;100.00;100598.03;5052274;28;20033;-78
2023/12/02 07:40:58;;;;;;;7.07;4.90;;;;;;;-4.49;100.00;100582.09;5036277;28;20178;-78
2023/12/02 07:43:24;;;;;;;12.13;5.72;;;;;;;-4.61;100.00;100588.84;5019048;28;20418;-78
2023/12/02 07:45:50;;;;;;;9.18;5.25;;;;;;;-4.52;100.00;100593.59;5019443;28;20039;-78
2023/12/02 07:48:16;;;;;;;6.38;3.80;;;;;;;-4.60;100.00;100563.44;5019588;28;20116;-78
2023/12/02 07:50:42;;;;;;;7.82;5.65;;;;;;;-4.35;100.00;100590.03;5035910;28;20036;-78
2023/12/02 07:53:08;;;;;;;5.32;3.65;;;;;;;-4.25;100.00;100590.38;5019490;28;20123;-78
2023/12/02 07:55:33;;;;;;;7.03;3.83;;;;;;;-4.25;100.00;100585.13;5035980;28;20387;-78
2023/12/02 07:57:59;;;;;;;6.70;4.60;;;;;;;-4.25;100.00;100587.75;5019447;28;20044;-78
2023/12/02 08:00:25;;;;;;;7.63;4.55;;;;;;;-4.17;100.00;100589.97;5019458;28;20388;-78
2023/12/02 08:02:51;;;;;;;6.90;4.55;;;;;;;-4.12;100.00;100588.78;5036444;28;20487;-78
2023/12/02 08:05:17;;;;;;;7.30;4.68;;;;;;;-4.03;100.00;100582.97;5019339;28;20546;-78
2023/12/02 08:07:42;;;;;;;7.18;4.63;;;;;;;-4.00;100.00;100580.19;5035442;28;20033;-78
2023/12/02 08:10:09;;;;;;;7.80;4.55;;;;;;;-3.96;100.00;100580.03;5052334;28;20031;-78
2023/12/02 08:12:35;;;;;;;5.13;3.67;;;;;;;-3.99;100.00;100588.94;5035809;28;20049;-79
2023/12/02 08:15:14;;;;;;;5.90;3.80;;;;;;;-4.14;100.00;100576.66;5019302;28;20044;-78
2023/12/02 08:17:40;;;;;;;5.07;3.53;;;;;;;-3.89;100.00;100600.59;5052316;28;20467;-78
2023/12/02 08:20:08;;;;;;;7.15;4.40;;;;;;;-3.73;100.00;100591.81;5019163;28;20091;-78
2023/12/02 08:22:34;;;;;;;5.95;4.00;;;;;;;-3.70;100.00;100596.94;5019323;28;20480;-78
2023/12/02 08:25:00;;;;;;;8.10;4.85;;;;;;;-3.78;100.00;100607.88;5035828;28;20083;-78
2023/12/02 08:27:25;;;;;;;6.63;4.28;;;;;;;-3.86;100.00;100602.22;5035530;28;20407;-78
2023/12/02 08:29:51;;;;;;;5.20;3.95;;;;;;;-3.96;100.00;100601.03;5018833;28;20071;-78
2023/12/02 08:32:17;;;;;;;7.05;3.80;;;;;;;-4.00;100.00;100595.94;5018967;28;20376;-78
2023/12/02 08:34:42;;;;;;;8.90;4.85;;;;;;;-4.05;100.00;100600.63;5018271;28;20041;-79
2023/12/02 08:37:48;;;;;;;9.52;5.10;;;;;;;-4.14;100.00;100582.75;5019128;28;20110;-78
2023/12/02 08:40:19;;;;;;;7.55;3.85;;;;;;;-4.06;100.00;100593.66;5035999;28;20064;-78
2023/12/02 08:43:15;;;;;;;11.85;6.38;;;;;;;-4.10;100.00;100576.41;5018698;28;20045;-79
2023/12/02 08:45:51;;;;;;;7.28;5.43;;;;;;;-3.84;100.00;100582.78;5035669;28;20036;-78
2023/12/02 08:48:17;;;;;;;12.13;6.68;;;;;;;-3.59;100.00;100600.63;5034055;28;20041;-78
2023/12/02 08:50:43;;;;;;;18.10;8.82;;;;;;;-3.42;100.00;100604.03;5034560;28;20029;-78
2023/12/02 08:53:12;;;;;;;16.88;9.32;;;;;;;-3.36;100.00;100601.91;5020030;28;20033;-78
2023/12/02 08:55:37;;;;;;;27.65;13.52;;;;;;;-3.36;100.00;100593.16;5021035;28;20060;-79
2023/12/02 08:58:03;;;;;;;12.88;6.72;;;;;;;-3.23;100.00;100599.38;5040633;28;20041;-78
2023/12/02 09:00:30;;;;;;;12.38;7.45;;;;;;;-3.07;100.00;100596.66;5022077;28;20391;-78
2023/12/02 09:02:56;;;;;;;9.80;5.85;;;;;;;-2.87;100.00;100606.00;5022218;28;20430;-78
2023/12/02 09:05:22;;;;;;;9.25;4.78;;;;;;;-2.54;100.00;100599.56;5022385;28;20032;-78
2023/12/02 09:07:48;;;;;;;8.80;4.80;;;;;;;-2.24;100.00;100602.91;5023302;28;20029;-78
2023/12/02 09:10:23;;;;;;;6.55;4.45;;;;;;;-1.92;100.00;100604.44;5038700;28;20407;-79
2023/12/02 09:12:49;;;;;;;10.52;5.72;;;;;;;-1.66;100.00;100602.75;5022327;28;20074;-78
2023/12/02 09:15:15;;;;;;;13.93;8.23;;;;;;;-1.45;100.00;100608.38;5022298;28;20076;-78
2023/12/02 09:18:02;;;;;;;16.33;9.45;;;;;;;-1.34;100.00;100604.06;5038478;28;20031;-78
2023/12/02 09:20:37;;;;;;;12.88;8.07;;;;;;;-1.19;100.00;100607.47;5038559;28;20455;-78
2023/12/02 09:23:02;;;;;;;14.82;7.25;;;;;;;-1.14;100.00;100596.56;5055223;28;20039;-78
2023/12/02 09:25:28;;;;;;;12.77;7.05;;;;;;;-1.04;100.00;100600.28;5038041;28;20535;-78
2023/12/02 09:28:06;;;;;;;13.70;8.13;;;;;;;-1.02;100.00;100608.09;5022022;28;20029;-78
2023/12/02 09:30:40;;;;;;;10.05;6.05;;;;;;;-1.06;100.00;100604.81;5038339;28;20036;-78
2023/12/02 09:33:06;;;;;;;13.55;7.78;;;;;;;-1.09;100.00;100610.31;5054996;28;20037;-79
2023/12/02 09:35:33;;;;;;;13.50;6.90;;;;;;;-1.09;100.00;100601.56;5021504;28;20036;-78
2023/12/02 09:38:00;;;;;;;10.68;7.15;;;;;;;-1.11;100.00;100601.69;5038088;28;20033;-78
2023/12/02 09:40:57;;;;;;;13.23;7.78;;;;;;;-1.04;100.00;100605.56;5054275;28;20044;-77
2023/12/02 09:43:47;;;;;;;14.48;6.20;;;;;;;-0.96;100.00;100605.88;5038091;28;20024;-78
2023/12/02 09:46:33;;;;;;;12.88;6.90;;;;;;;-0.81;100.00;100608.44;5037763;28;20036;-77
2023/12/02 09:49:08;;;;;;;15.75;7.45;;;;;;;-0.63;100.00;100604.50;5021674;28;20061;-77
2023/12/02 09:51:49;;;;;;;16.58;8.63;;;;;;;-0.29;100.00;100607.38;5038092;28;20533;-78
2023/12/02 09:54:36;;;;;;;33.30;15.85;;;;;;;-0.02;100.00;100607.19;5054395;28;20029;-78
2023/12/02 09:57:12;;;;;;;15.93;8.88;;;;;;;0.05;100.00;100612.88;5054476;28;20032;-77
2023/12/02 10:00:09;;;;;;;15.48;7.20;;;;;;;0.30;100.00;100602.19;5037495;28;20471;-77
2023/12/02 10:03:03;;;;;;;12.43;6.45;;;;;;;1.09;100.00;100605.91;5021213;28;20092;-77
2023/12/02 10:05:54;;;;;;;14.35;7.30;;;;;;;1.37;100.00;100597.59;5036768;28;20036;-77
2023/12/02 10:08:26;;;;;;;12.05;5.68;;;;;;;0.79;100.00;100603.78;5037028;28;20124;-77
2023/12/02 10:11:06;;;;;;;8.95;4.50;;;;;;;0.54;100.00;100614.56;5037378;28;20048;-77
2023/12/02 10:13:54;;;;;;;7.82;4.72;;;;;;;1.31;100.00;100610.38;5021893;28;20095;-77
2023/12/02 10:16:21;;;;;;;13.00;5.65;;;;;;;1.52;100.00;100614.94;5021286;28;20033;-77
2023/12/02 10:18:53;;;;;;;9.93;6.60;;;;;;;2.31;100.00;100612.16;5037272;28;20040;-77
2023/12/02 10:21:20;;;;;;;10.82;7.65;;;;;;;3.20;100.00;100607.31;5054202;28;20487;-78
2023/12/02 10:24:02;;;;;;;9.57;5.65;;;;;;;3.08;100.00;100614.53;5020985;28;20039;-78
2023/12/02 10:26:33;;;;;;;11.95;5.82;;;;;;;2.03;100.00;100610.91;5053511;28;20090;-77
2023/12/02 10:29:24;;;;;;;9.75;6.22;;;;;;;1.53;100.00;100620.16;5036946;28;20467;-77
2023/12/02 10:32:06;;;;;;;12.38;6.82;;;;;;;1.26;100.00;100606.38;5037290;28;20501;-77
2023/12/02 10:34:31;;;;;;;11.80;6.43;;;;;;;1.18;100.00;100624.69;5036921;28;20083;-77
2023/12/02 10:36:59;;;;;;;10.75;5.43;;;;;;;1.10;100.00;100617.34;5037325;28;20266;-77
2023/12/02 10:39:46;;;;;;;12.65;5.70;;;;;;;1.18;100.00;100611.44;5020860;28;20041;-77
2023/12/02 10:42:27;;;;;;;13.85;6.38;;;;;;;1.34;100.00;100606.63;5021618;28;20124;-77
2023/12/02 10:45:04;;;;;;;16.45;6.45;;;;;;;1.41;100.00;100599.06;5020638;28;20496;-76
2023/12/02 10:47:31;;;;;;;11.93;6.78;;;;;;;1.50;100.00;100599.16;5020828;28;20039;-77
2023/12/02 10:49:58;;;;;;;9.85;5.22;;;;;;;1.75;100.00;100602.53;5036551;28;20480;-77
2023/12/02 10:52:24;;;;;;;8.80;5.45;;;;;;;2.04;100.00;100605.47;5021051;28;20028;-77
2023/12/02 10:54:51;;;;;;;10.73;6.60;;;;;;;2.26;100.00;100590.47;5020306;28;20541;-77
2023/12/02 10:57:19;;;;;;;9.73;5.53;;;;;;;2.36;100.00;100594.03;5053242;28;20048;-78
2023/12/02 11:00:16;;;;;;;10.60;5.60;;;;;;;2.39;100.00;100593.78;5020312;28;20039;-77
2023/12/02 11:02:47;;;;;;;9.32;4.35;;;;;;;2.44;100.00;100598.72;5038291;28;20036;-77
2023/12/02 11:05:44;;;;;;;9.32;5.15;;;;;;;2.58;100.00;100596.59;5036626;28;20040;-77
2023/12/02 11:08:17;;;;;;;9.55;6.80;;;;;;;2.71;100.00;100603.53;5033068;28;20044;-77
2023/12/02 11:10:44;;;;;;;;;;;;;;;2.70;100.00;100604.47;5036823;28;20044;-78
2023/12/02 11:13:18;;;;;;;8.40;5.63;;;;;;;2.77;100.00;100600.34;5069263;28;19908;-78
2023/12/02 11:16:10;;;;;;;10.18;6.78;;;;;;;2.82;100.00;100595.50;5036403;28;20094;-78
2023/12/02 11:19:10;;;;;;;10.23;6.38;;;;;;;2.85;100.00;100587.25;5019655;28;20458;-78
2023/12/02 11:21:51;;;;;;;8.52;5.63;;;;;;;2.98;100.00;100600.34;5052456;28;20033;-78